Jaslovské Bohunice, Slovensko

11:20 PM CET dna 29 Január, 2015 (GMT +0100)
ITRNAVAM3 | Change Station
CLOSE
Current Station
Personal Weather Stations
Location: Malzenice, TRNAVA
Nad. výška:: 482 ft
Najbližšie meteo stanice

Elev 482 ft 48.45 °N, 17.67 °E | Updated 3 minutes ago

Mostly Cloudy
Prevažne zamračené
30.7 °F
Feels Like 27 °F
N
4.0
Vietor meniaci sa Vietor from JJV
Gusts 15.0 mph

Dnes
High -- | Low -- °F
--% Chance of Precip.
Yesterday
High -- | Low -- °F
Precip. -- in
7:22 AM 4:42 PM
Pribúdajúci mesiac, 2. fáza, 77% visible
Tlak 29.27 in
Viditeľnosť -9999.0 mile
Oblačnost Prevažne zamračené 500 ft
Prevažne zamračené 9200 ft
Pocitová teplota 27 °F
Rosný bod 29 °F
Vlhkosť 94%
Rainfall 0.02 in
Výška snehu Not available.
UV 0 out of 12
Pollen Not available.
Air Quality Not available.
Flu Activity Not available.
METAR LZIB 292200Z 11011KT 4400 BR BKN005 BKN092 M01/M02 Q0991 R13/2///95

More Conditions Fewer Conditions

Tlak 29.27 in
Viditeľnosť -9999.0 mile
Oblačnost Prevažne zamračené 500 ft
Prevažne zamračené 9200 ft
Pocitová teplota 27 °F
Rosný bod 29 °F
Vlhkosť 94%
Rainfall 0.02 in
Výška snehu Not available.
UV 0 out of 12
Pollen Not available.
Air Quality Not available.
Flu Activity Not available.
METAR LZIB 292200Z 11011KT 4400 BR BKN005 BKN092 M01/M02 Q0991 R13/2///95

More Conditions Fewer Conditions

10-Day Weather Forecast

Almanac

Astronómia

Jan. 29, 2015 Východ Západ
Aktuálny čas
Civil Twilight
Nautical Twilight
Astronomical Twilight
Mesiac
Length Of Visible Light
Dĺžka dňa
Tomorrow will be .
, % of the Moon is Illuminated

Today's Extremes

Country Highs Country Lows

Community

WunderPhotos

Upload Photos

1,791,629 photos uploaded!

WunderBlogs® & News

Nearby

Air Quality

  Air Quality AQ Index Pollutant
Not available.

Výska snehu

Station Depth Nad. výška:

Aktivita zemetrasenia

Mesto Distance Mag. Time & Date
Minimum magnitude displayed is 2.5.

Coastal Water Temperatures

Miesto Teplota

Najbližšie meteo stanice